Vetal, South Dakota
Current Conditions -  °F | °C
As of 1:52 AM on Wednesday 22 Oct 2014 (Local Time) from KIEN Reporting Station
Overcast Overcast  
Wind Chill: 58°   Ceiling: 9500
Heat Index: 58°   Visibility: 10mi
Dew Point: 47°   Wind: 5mph
Humidity: 67%   Direction: 250°WSW
Pressure: 29.86"   Gusts: NA
Location:  43.2013°N, 101.679°W
Report Text: KIEN 220752Z AUTO 25004KT 10SM OVC095 14/08 A2986 RMK AO2 RAB04E14 SLP085 P0000 T01440083
Loading
Personal Weather Stations






























Interactive Weather Map New forecast layout! Learn more

10-Day Weather Forecast

Advertisements
Track Severe Weather on mobile